Time;durP1;ratioP1;P1;durP2;ratioP2;P2;SDS_P1;SDS_P2;PMS_P1;PMS_P2;Temp;Humidity;BMP_temperature;BMP_pressure;BME280_temperature;BME280_humidity;BME280_pressure;Samples;Min_cycle;Max_cycle;Signal;HPM_P1;HPM_P2
2021/05/31 00:00:31;;;;;;;3.80;3.17;;;;;;;12.84;71.20;100854.64;647230;220;24876;-74
2021/05/31 00:02:58;;;;;;;4.93;3.33;;;;;;;12.84;71.62;100859.38;633889;225;23938;-74
2021/05/31 00:05:26;;;;;;;5.40;4.30;;;;;;;12.78;71.87;100858.62;635824;225;30437;-73
2021/05/31 00:07:54;;;;;;;4.80;3.57;;;;;;;12.63;72.10;100849.61;630958;226;23934;-73
2021/05/31 00:10:23;;;;;;;5.53;4.60;;;;;;;12.40;73.47;100853.89;642880;221;23899;-74
2021/05/31 00:12:50;;;;;;;6.17;5.47;;;;;;;12.39;73.21;100847.51;638672;221;24927;-74
2021/05/31 00:15:19;;;;;;;8.27;6.00;;;;;;;12.22;72.75;100841.20;643337;221;23933;-75
2021/05/31 00:17:48;;;;;;;6.47;4.60;;;;;;;12.24;73.04;100840.58;642609;221;24868;-74
2021/05/31 00:20:15;;;;;;;6.07;3.90;;;;;;;12.36;73.16;100835.55;641414;221;24874;-73
2021/05/31 00:22:42;;;;;;;5.30;3.53;;;;;;;12.33;72.24;100832.41;644192;221;28075;-74
2021/05/31 00:25:11;;;;;;;3.67;3.30;;;;;;;12.25;71.89;100832.30;641771;221;23898;-73
2021/05/31 00:27:39;;;;;;;4.43;3.77;;;;;;;12.26;72.39;100836.07;641556;222;24870;-74
2021/05/31 00:30:09;;;;;;;4.23;3.63;;;;;;;12.21;72.45;100829.61;638800;221;25142;-75
2021/05/31 00:32:36;;;;;;;4.70;3.50;;;;;;;12.21;72.28;100826.52;642336;221;24886;-74
2021/05/31 00:35:05;;;;;;;5.55;3.20;;;;;;;12.74;71.28;100829.87;639494;221;32690;-73
2021/05/31 00:37:33;;;;;;;5.07;3.23;;;;;;;12.42;71.61;100823.26;629843;224;23754;-74
2021/05/31 00:40:01;;;;;;;8.00;3.37;;;;;;;12.49;70.90;100825.62;643731;220;24869;-73
2021/05/31 00:42:29;;;;;;;4.57;3.43;;;;;;;12.39;71.58;100827.46;640890;221;24880;-73
2021/05/31 00:44:56;;;;;;;3.13;2.80;;;;;;;12.32;71.05;100821.15;634762;224;24880;-74
2021/05/31 00:47:24;;;;;;;3.80;3.10;;;;;;;12.22;71.89;100822.95;641926;220;24901;-73
2021/05/31 00:49:54;;;;;;;5.17;2.97;;;;;;;12.13;71.87;100821.20;627394;225;24906;-74
2021/05/31 00:52:20;;;;;;;3.17;2.87;;;;;;;12.08;72.58;100822.91;646895;221;24893;-73
2021/05/31 00:54:48;;;;;;;3.93;3.00;;;;;;;12.11;71.98;100817.92;646161;221;24862;-74
2021/05/31 00:57:16;;;;;;;6.60;3.00;;;;;;;11.98;71.89;100823.91;644614;221;24918;-74
2021/05/31 00:59:44;;;;;;;4.73;3.33;;;;;;;11.89;72.71;100822.45;640558;221;24866;-74
2021/05/31 01:02:12;;;;;;;3.53;2.77;;;;;;;11.81;72.35;100817.09;632983;225;28144;-74
2021/05/31 01:04:40;;;;;;;3.83;3.30;;;;;;;11.77;72.54;100814.89;629348;226;26095;-73
2021/05/31 01:07:09;;;;;;;4.30;3.15;;;;;;;12.00;72.70;100820.19;643549;221;32753;-73
2021/05/31 01:09:45;;;;;;;5.63;2.90;;;;;;;11.54;73.97;100824.30;641401;221;23768;-73
2021/05/31 01:12:09;;;;;;;3.53;2.80;;;;;;;11.42;75.05;100831.06;637353;222;24881;-74
2021/05/31 01:14:40;;;;;;;3.27;2.93;;;;;;;11.19;75.98;100836.98;644573;221;24923;-73
2021/05/31 01:17:08;;;;;;;3.43;3.00;;;;;;;11.39;75.19;100830.01;639334;221;24894;-74
2021/05/31 01:19:48;;;;;;;4.20;3.20;;;;;;;11.38;75.21;100827.06;635522;225;24916;-74
2021/05/31 01:22:16;;;;;;;3.47;2.83;;;;;;;11.53;74.55;100823.10;641146;221;24873;-73
2021/05/31 01:24:48;;;;;;;7.17;3.20;;;;;;;11.35;74.68;100819.53;634100;224;24873;-74
2021/05/31 01:27:18;;;;;;;5.27;3.30;;;;;;;11.24;75.26;100821.77;641377;222;24845;-73
2021/05/31 01:29:46;;;;;;;3.23;2.67;;;;;;;11.24;74.40;100819.98;639355;221;24871;-73
2021/05/31 01:32:14;;;;;;;5.10;3.30;;;;;;;11.27;74.39;100815.83;634533;223;23934;-73
2021/05/31 01:34:42;;;;;;;3.13;2.83;;;;;;;11.25;75.14;100809.91;639053;221;24917;-73
2021/05/31 01:37:10;;;;;;;3.70;3.07;;;;;;;11.33;73.25;100807.13;629847;226;24916;-73
2021/05/31 01:39:38;;;;;;;7.13;2.63;;;;;;;11.30;74.19;100804.32;630710;226;24941;-74
2021/05/31 01:42:07;;;;;;;6.17;3.23;;;;;;;11.32;74.73;100805.48;630300;225;27048;-73
2021/05/31 01:44:35;;;;;;;4.33;3.10;;;;;;;11.25;74.32;100806.00;641092;221;24199;-73
2021/05/31 01:47:03;;;;;;;4.53;3.20;;;;;;;11.36;74.00;100801.64;627033;224;32902;-74
2021/05/31 01:49:31;;;;;;;10.13;3.37;;;;;;;11.20;75.26;100809.50;642237;221;24854;-74
2021/05/31 01:51:59;;;;;;;4.87;3.27;;;;;;;11.18;75.79;100804.09;636846;225;24925;-74
2021/05/31 01:54:27;;;;;;;3.60;2.90;;;;;;;10.92;77.37;100810.25;634999;224;24955;-73
2021/05/31 01:56:55;;;;;;;4.20;2.90;;;;;;;10.80;78.31;100816.03;642154;220;32741;-73
2021/05/31 01:59:23;;;;;;;3.50;3.20;;;;;;;10.70;77.70;100814.72;638828;220;24868;-73
2021/05/31 02:01:52;;;;;;;4.60;3.70;;;;;;;10.72;77.56;100809.86;643115;220;24915;-73
2021/05/31 02:04:19;;;;;;;4.63;3.67;;;;;;;10.88;76.16;100807.58;644519;221;25000;-73
2021/05/31 02:06:49;;;;;;;3.80;3.00;;;;;;;11.04;76.26;100801.87;627183;225;33505;-73
2021/05/31 02:09:17;;;;;;;6.30;3.10;;;;;;;10.91;76.07;100795.59;643231;221;23805;-73
2021/05/31 02:11:45;;;;;;;4.53;3.10;;;;;;;10.91;75.94;100801.62;627507;225;24921;-73
2021/05/31 02:14:14;;;;;;;3.50;3.20;;;;;;;10.88;76.03;100799.77;632771;225;24918;-73
2021/05/31 02:16:42;;;;;;;3.60;3.30;;;;;;;10.93;75.38;100798.89;630767;225;24998;-73
2021/05/31 02:19:11;;;;;;;3.70;2.70;;;;;;;11.22;74.69;100785.93;635387;220;32740;-74
2021/05/31 02:21:39;;;;;;;3.97;3.13;;;;;;;11.09;74.33;100788.78;628603;226;23813;-73
2021/05/31 02:24:09;;;;;;;3.13;2.80;;;;;;;11.13;74.24;100785.45;641264;221;24282;-74
2021/05/31 02:26:36;;;;;;;6.60;3.10;;;;;;;11.17;73.96;100783.74;642330;221;24906;-73
2021/05/31 02:29:03;;;;;;;4.20;3.10;;;;;;;11.30;74.32;100781.70;624636;225;33927;-73
2021/05/31 02:31:32;;;;;;;4.87;2.83;;;;;;;11.15;73.74;100780.45;644155;221;24874;-73
2021/05/31 02:34:00;;;;;;;6.70;3.20;;;;;;;11.14;73.31;100784.50;638149;225;24906;-73
2021/05/31 02:36:28;;;;;;;5.00;3.20;;;;;;;11.10;73.70;100776.11;641883;221;24919;-73
2021/05/31 02:38:56;;;;;;;6.07;2.57;;;;;;;11.00;74.37;100777.89;648435;221;27000;-74
2021/05/31 02:41:24;;;;;;;4.83;3.47;;;;;;;11.02;74.49;100777.76;645426;221;24874;-73
2021/05/31 02:43:52;;;;;;;6.50;3.20;;;;;;;11.04;74.33;100770.16;631086;225;24942;-73
2021/05/31 02:46:20;;;;;;;4.13;2.60;;;;;;;10.94;74.12;100774.51;646088;221;24874;-73
2021/05/31 02:48:47;;;;;;;3.17;2.60;;;;;;;10.85;74.50;100774.84;644046;220;24861;-74
2021/05/31 02:51:15;;;;;;;3.30;2.70;;;;;;;10.75;75.12;100778.37;627209;225;25225;-74
2021/05/31 02:53:43;;;;;;;6.20;3.13;;;;;;;10.67;75.09;100782.44;632464;226;24908;-74
2021/05/31 02:56:11;;;;;;;6.37;3.40;;;;;;;10.80;74.46;100774.41;628234;226;32881;-73
2021/05/31 02:58:40;;;;;;;5.50;2.90;;;;;;;10.69;74.68;100773.20;638141;220;22904;-74
2021/05/31 03:01:07;;;;;;;3.83;3.40;;;;;;;10.67;74.42;100781.13;629126;225;24929;-73
2021/05/31 03:03:35;;;;;;;5.10;2.47;;;;;;;10.62;74.97;100772.91;646821;221;24884;-73
2021/05/31 03:06:03;;;;;;;4.23;3.83;;;;;;;10.56;75.99;100774.75;632259;225;24937;-73
2021/05/31 03:08:31;;;;;;;3.33;2.83;;;;;;;10.54;76.10;100783.14;647659;220;24876;-73
2021/05/31 03:10:59;;;;;;;3.97;2.77;;;;;;;10.39;76.76;100787.04;629889;224;24941;-73
2021/05/31 03:13:27;;;;;;;4.90;2.87;;;;;;;10.48;75.41;100782.37;643224;220;24865;-73
2021/05/31 03:15:55;;;;;;;3.10;2.80;;;;;;;10.39;75.89;100785.74;642871;221;23896;-73
2021/05/31 03:18:23;;;;;;;7.53;3.27;;;;;;;10.37;75.90;100787.66;629337;225;24918;-74
2021/05/31 03:20:51;;;;;;;5.17;3.73;;;;;;;10.39;75.62;100789.16;626574;225;24905;-73
2021/05/31 03:23:19;;;;;;;4.07;2.80;;;;;;;10.30;76.46;100788.66;640246;221;24864;-74
2021/05/31 03:25:47;;;;;;;3.13;2.83;;;;;;;10.33;75.75;100792.30;646464;221;24869;-74
2021/05/31 03:28:15;;;;;;;7.40;3.00;;;;;;;10.29;76.09;100793.99;632496;225;25245;-73
2021/05/31 03:30:43;;;;;;;3.00;2.50;;;;;;;10.33;75.77;100792.77;641206;221;24852;-73
2021/05/31 03:33:11;;;;;;;5.03;2.83;;;;;;;10.25;75.76;100786.91;635744;225;25038;-73
2021/05/31 03:35:39;;;;;;;3.70;2.80;;;;;;;10.45;75.53;100788.32;628185;225;32890;-73
2021/05/31 03:38:06;;;;;;;3.37;2.93;;;;;;;10.34;76.40;100789.22;641923;221;23740;-74
2021/05/31 03:40:35;;;;;;;3.37;2.47;;;;;;;10.41;75.58;100787.73;627042;225;25035;-74
2021/05/31 03:43:02;;;;;;;3.63;3.03;;;;;;;10.44;74.98;100789.27;641046;221;24885;-74
2021/05/31 03:45:30;;;;;;;3.30;3.00;;;;;;;10.52;74.22;100790.73;640433;221;28425;-73
2021/05/31 03:47:58;;;;;;;5.53;2.77;;;;;;;10.59;74.64;100793.17;629254;225;23947;-73
2021/05/31 03:50:26;;;;;;;4.20;2.80;;;;;;;10.70;73.78;100784.80;641430;220;24881;-73
2021/05/31 03:52:54;;;;;;;4.77;3.03;;;;;;;10.78;73.94;100784.12;632952;225;24876;-73
2021/05/31 03:55:22;;;;;;;4.23;3.07;;;;;;;10.99;72.52;100787.48;640695;221;24906;-73
2021/05/31 03:57:50;;;;;;;4.97;2.80;;;;;;;11.42;71.56;100782.88;621063;225;33302;-73
2021/05/31 04:00:19;;;;;;;2.80;2.60;;;;;;;11.37;72.50;100779.84;625615;225;23773;-74
2021/05/31 04:02:47;;;;;;;4.23;3.00;;;;;;;11.26;72.38;100780.34;635072;225;24922;-73
2021/05/31 04:05:15;;;;;;;4.50;2.80;;;;;;;11.28;72.69;100783.63;627988;225;24918;-74
2021/05/31 04:13:04;;;;;;;2.60;2.10;;;;;;;11.40;71.93;100784.77;636316;223;24870;-73
2021/05/31 04:15:32;;;;;;;4.70;2.23;;;;;;;11.65;70.70;100781.62;640210;220;24907;-73
2021/05/31 04:18:00;;;;;;;3.33;2.50;;;;;;;11.94;70.89;100776.90;626656;226;24908;-73
2021/05/31 04:20:28;;;;;;;13.33;2.80;;;;;;;12.11;70.09;100782.23;630999;225;25231;-74
2021/05/31 04:22:56;;;;;;;3.43;2.33;;;;;;;12.35;69.35;100778.30;647018;221;24881;-73
2021/05/31 04:25:25;;;;;;;3.00;2.70;;;;;;;12.48;68.53;100780.11;631007;225;24914;-73
2021/05/31 04:27:52;;;;;;;2.97;2.63;;;;;;;12.40;68.83;100784.75;629453;225;24903;-74
2021/05/31 04:30:21;;;;;;;11.23;2.87;;;;;;;12.54;69.31;100786.56;634313;225;24922;-73
2021/05/31 04:32:49;;;;;;;2.90;2.60;;;;;;;12.59;68.45;100785.16;640647;221;25921;-73
2021/05/31 04:35:17;;;;;;;2.83;2.63;;;;;;;12.63;69.64;100781.28;645202;221;23903;-74
2021/05/31 04:37:44;;;;;;;3.57;2.97;;;;;;;12.73;69.50;100782.55;640000;221;24915;-73
2021/05/31 04:40:13;;;;;;;5.07;2.90;;;;;;;12.77;70.15;100787.33;628621;225;24922;-73
2021/05/31 04:42:41;;;;;;;4.00;2.50;;;;;;;12.89;69.11;100791.05;637244;225;24903;-74
2021/05/31 04:45:10;;;;;;;4.50;2.70;;;;;;;12.90;68.65;100789.59;646892;221;27032;-73
2021/05/31 04:47:38;;;;;;;2.90;2.70;;;;;;;12.93;69.33;100788.48;630202;225;24895;-74
2021/05/31 04:50:07;;;;;;;3.90;2.90;;;;;;;12.93;69.72;100791.91;641492;221;25079;-73
2021/05/31 04:52:35;;;;;;;4.13;2.63;;;;;;;12.98;69.27;100791.49;642737;221;23895;-74
2021/05/31 04:55:03;;;;;;;4.47;2.90;;;;;;;13.07;69.49;100792.72;635499;225;27021;-74
2021/05/31 04:57:31;;;;;;;4.10;2.87;;;;;;;13.21;68.81;100795.34;644593;220;24883;-74
2021/05/31 04:59:59;;;;;;;4.23;3.00;;;;;;;13.36;68.90;100805.62;645915;221;24884;-74
2021/05/31 05:02:27;;;;;;;5.70;2.30;;;;;;;13.45;68.96;100805.22;638245;221;24928;-74
2021/05/31 05:04:55;;;;;;;7.70;2.50;;;;;;;13.64;66.87;100793.78;627166;226;24898;-74
2021/05/31 05:07:23;;;;;;;3.73;3.00;;;;;;;13.58;68.15;100797.83;643152;221;24867;-73
2021/05/31 05:09:50;;;;;;;4.37;2.83;;;;;;;13.74;66.90;100784.56;630253;226;23942;-74
2021/05/31 05:12:18;;;;;;;3.80;2.70;;;;;;;13.81;65.45;100787.73;646327;221;23895;-74
2021/05/31 05:14:46;;;;;;;7.10;2.63;;;;;;;13.92;66.26;100790.57;641889;221;24887;-74
2021/05/31 05:17:14;;;;;;;3.80;2.63;;;;;;;14.22;67.04;100788.84;639469;222;23875;-74
2021/05/31 05:19:42;;;;;;;3.50;2.20;;;;;;;14.06;65.31;100786.09;634205;225;24936;-73
2021/05/31 05:22:10;;;;;;;6.00;3.00;;;;;;;14.18;67.12;100794.02;627785;226;26123;-74
2021/05/31 05:24:38;;;;;;;3.73;2.20;;;;;;;13.96;65.70;100781.47;641181;220;24954;-73
2021/05/31 05:27:07;;;;;;;4.70;2.23;;;;;;;14.08;65.48;100785.48;631904;225;28142;-74
2021/05/31 05:29:35;;;;;;;3.33;2.40;;;;;;;14.06;65.99;100783.48;633823;225;23938;-74
2021/05/31 05:32:03;;;;;;;5.30;2.40;;;;;;;13.92;65.75;100787.95;629946;225;23899;-74
2021/05/31 05:34:31;;;;;;;3.60;2.47;;;;;;;14.14;66.90;100785.34;650253;221;23891;-73
2021/05/31 05:37:02;;;;;;;2.40;2.20;;;;;;;14.12;65.33;100776.83;647384;221;24859;-73
2021/05/31 05:39:48;;;;;;;3.47;2.50;;;;;;;14.15;64.51;100775.20;645639;220;25950;-73
2021/05/31 05:42:22;;;;;;;2.80;2.10;;;;;;;14.19;64.95;100777.84;643810;221;23907;-73
2021/05/31 05:45:08;;;;;;;3.57;2.10;;;;;;;14.00;64.48;100773.64;640013;222;23909;-73
2021/05/31 05:49:55;;;;;;;4.10;2.30;;;;;;;14.39;63.97;100771.91;643319;220;25973;-73
2021/05/31 05:52:23;;;;;;;2.43;2.20;;;;;;;14.33;64.43;100773.83;633658;225;23931;-73
2021/05/31 05:54:51;;;;;;;2.60;2.30;;;;;;;14.41;64.03;100772.58;643463;221;24927;-73
2021/05/31 05:57:19;;;;;;;4.00;2.10;;;;;;;14.56;63.49;100772.34;639961;222;24909;-74
2021/05/31 05:59:47;;;;;;;4.08;2.05;;;;;;;14.78;64.94;100777.03;639006;220;32677;-73
2021/05/31 06:02:14;;;;;;;3.13;2.40;;;;;;;14.95;64.61;100777.08;643958;221;22791;-73
2021/05/31 06:04:42;;;;;;;2.83;2.50;;;;;;;14.88;63.49;100775.57;646581;221;24878;-74
2021/05/31 06:07:10;;;;;;;3.73;2.70;;;;;;;15.00;62.75;100780.84;634982;225;23919;-73
2021/05/31 06:09:38;;;;;;;4.10;2.90;;;;;;;14.95;63.44;100779.70;643889;221;23915;-74
2021/05/31 06:12:07;;;;;;;6.20;3.23;;;;;;;15.14;62.12;100770.23;630841;225;27064;-73
2021/05/31 06:14:36;;;;;;;4.20;2.77;;;;;;;15.45;61.46;100765.19;634776;225;28116;-74
2021/05/31 06:17:04;;;;;;;3.70;2.23;;;;;;;15.34;61.30;100762.42;639621;221;23924;-74
2021/05/31 06:19:32;;;;;;;2.80;2.53;;;;;;;15.05;61.26;100764.14;627971;226;28089;-74
2021/05/31 06:22:00;;;;;;;4.77;2.63;;;;;;;15.55;61.53;100772.91;640978;221;23918;-73
2021/05/31 06:24:28;;;;;;;3.47;2.60;;;;;;;15.51;62.40;100769.80;630173;225;23942;-74
2021/05/31 06:26:56;;;;;;;9.17;3.67;;;;;;;15.60;62.34;100770.14;631501;225;24956;-74
2021/05/31 06:29:24;;;;;;;3.40;2.60;;;;;;;16.01;61.48;100766.99;642393;221;23907;-75
2021/05/31 06:31:52;;;;;;;4.60;2.87;;;;;;;16.06;62.38;100771.77;631093;225;23936;-75
2021/05/31 06:34:20;;;;;;;5.23;3.10;;;;;;;15.83;60.86;100761.12;642962;220;23885;-74
2021/05/31 06:36:53;;;;;;;4.53;2.83;;;;;;;16.11;60.91;100766.00;639283;220;23914;-74
2021/05/31 06:39:16;;;;;;;6.67;2.73;;;;;;;16.39;61.29;100764.61;645645;220;24897;-75
2021/05/31 06:41:44;;;;;;;3.40;2.93;;;;;;;16.70;59.35;100756.80;632210;225;23879;-73
2021/05/31 06:44:12;;;;;;;4.50;2.93;;;;;;;17.17;61.35;100763.28;645379;221;23908;-74
2021/05/31 06:46:40;;;;;;;3.00;2.47;;;;;;;17.02;57.32;100754.48;630776;225;23932;-74
2021/05/31 06:49:08;;;;;;;5.93;2.93;;;;;;;16.60;58.75;100745.14;645652;220;23892;-74
2021/05/31 06:51:36;;;;;;;3.73;3.00;;;;;;;16.76;59.17;100756.63;634363;226;23937;-74
2021/05/31 06:54:04;;;;;;;2.60;2.40;;;;;;;16.87;58.27;100753.59;639447;223;23910;-74
2021/05/31 06:56:32;;;;;;;2.87;2.50;;;;;;;17.30;59.04;100752.16;637099;225;23984;-74
2021/05/31 06:59:00;;;;;;;3.23;2.60;;;;;;;17.20;57.94;100747.16;631116;225;23933;-74
2021/05/31 07:01:28;;;;;;;4.70;3.00;;;;;;;17.45;57.53;100741.69;643962;221;23884;-75
2021/05/31 07:03:56;;;;;;;5.40;2.27;;;;;;;17.36;58.45;100742.27;627485;226;23916;-74
2021/05/31 07:06:24;;;;;;;4.27;2.53;;;;;;;17.32;58.15;100745.44;627224;226;24911;-75
2021/05/31 07:08:52;;;;;;;4.07;3.07;;;;;;;17.43;58.85;100743.69;636291;225;24912;-75
2021/05/31 07:11:22;;;;;;;5.60;2.30;;;;;;;17.27;60.04;100743.81;639896;222;23895;-74
2021/05/31 07:13:48;;;;;;;3.87;2.67;;;;;;;17.27;58.28;100746.44;647412;221;23891;-75
2021/05/31 07:16:17;;;;;;;2.50;2.10;;;;;;;17.85;56.20;100742.36;642979;221;23898;-75
2021/05/31 07:18:45;;;;;;;2.90;2.67;;;;;;;17.67;58.13;100743.98;644530;220;23950;-75
2021/05/31 07:21:12;;;;;;;3.60;2.33;;;;;;;17.30;57.28;100742.95;632809;225;23933;-74
2021/05/31 07:23:40;;;;;;;3.70;2.30;;;;;;;17.42;57.83;100742.05;640470;221;23902;-75
2021/05/31 07:26:08;;;;;;;2.80;1.93;;;;;;;17.25;56.68;100739.23;645625;221;23890;-74
2021/05/31 07:28:36;;;;;;;3.67;2.27;;;;;;;17.01;57.89;100742.34;632729;225;24942;-73
2021/05/31 07:31:04;;;;;;;3.67;2.00;;;;;;;17.56;57.92;100755.74;627843;226;24908;-73
2021/05/31 07:33:32;;;;;;;2.03;1.83;;;;;;;17.91;55.82;100737.72;641928;221;23951;-73
2021/05/31 07:36:02;;;;;;;4.27;2.60;;;;;;;18.11;56.58;100728.28;625866;225;24205;-73
2021/05/31 07:38:28;;;;;;;4.43;2.93;;;;;;;18.60;57.63;100740.38;632528;225;24947;-73
2021/05/31 07:40:57;;;;;;;4.20;2.80;;;;;;;18.57;58.66;100741.22;643133;221;23905;-73
2021/05/31 07:43:25;;;;;;;4.67;2.07;;;;;;;18.27;54.52;100722.81;640618;221;23903;-73
2021/05/31 07:45:52;;;;;;;3.70;1.87;;;;;;;18.60;54.77;100725.07;649769;219;23922;-73
2021/05/31 07:48:20;;;;;;;3.50;2.13;;;;;;;18.12;55.55;100723.33;635549;224;23937;-73
2021/05/31 07:50:48;;;;;;;2.27;2.07;;;;;;;18.68;54.82;100718.39;645240;220;23897;-74
2021/05/31 07:53:20;;;;;;;3.10;2.53;;;;;;;18.75;55.15;100721.93;640412;222;23918;-74
2021/05/31 07:55:45;;;;;;;7.20;1.97;;;;;;;18.66;53.98;100715.94;634337;224;23934;-75
2021/05/31 07:58:13;;;;;;;5.03;2.07;;;;;;;18.47;53.51;100717.00;640005;223;23889;-74
2021/05/31 08:00:42;;;;;;;3.85;2.20;;;;;;;18.55;53.33;100713.75;638233;220;32960;-74
2021/05/31 08:03:09;;;;;;;4.40;1.70;;;;;;;18.69;53.87;100710.30;639464;222;22773;-74
2021/05/31 08:05:37;;;;;;;1.83;1.70;;;;;;;18.96;55.26;100717.17;640724;221;23960;-74
2021/05/31 08:08:05;;;;;;;2.30;1.83;;;;;;;19.21;51.24;100707.07;643561;222;23891;-74
2021/05/31 08:10:33;;;;;;;2.50;1.87;;;;;;;19.42;54.47;100696.48;640485;220;23905;-74
2021/05/31 08:13:01;;;;;;;1.87;1.53;;;;;;;19.13;50.85;100693.50;644602;221;23913;-75
2021/05/31 08:15:30;;;;;;;2.17;1.63;;;;;;;18.94;51.54;100691.50;639811;221;25137;-74
2021/05/31 08:17:57;;;;;;;3.27;2.20;;;;;;;19.02;52.34;100685.30;629088;226;23956;-74
2021/05/31 08:20:25;;;;;;;2.10;1.90;;;;;;;19.34;51.55;100679.49;646288;220;24192;-75
2021/05/31 08:22:54;;;;;;;3.03;2.03;;;;;;;19.43;52.02;100681.00;630070;225;24923;-74
2021/05/31 08:25:21;;;;;;;3.10;2.30;;;;;;;19.36;52.35;100684.07;640775;221;23897;-74
2021/05/31 08:27:49;;;;;;;3.30;1.97;;;;;;;19.39;51.47;100681.05;639367;222;23934;-74
2021/05/31 08:30:18;;;;;;;2.00;1.90;;;;;;;19.44;52.44;100682.62;627275;226;23941;-74
2021/05/31 08:32:46;;;;;;;3.07;1.73;;;;;;;19.45;48.73;100674.20;641340;223;23891;-74
2021/05/31 08:35:14;;;;;;;3.10;2.10;;;;;;;19.70;50.23;100666.17;632576;225;23939;-74
2021/05/31 08:37:42;;;;;;;1.90;1.80;;;;;;;19.46;48.04;100656.86;643658;221;23894;-74
2021/05/31 08:40:11;;;;;;;5.83;2.47;;;;;;;19.69;50.68;100670.32;645643;220;24181;-74
2021/05/31 08:42:39;;;;;;;4.50;2.13;;;;;;;19.92;49.21;100659.50;640070;221;24921;-74
2021/05/31 08:45:08;;;;;;;8.47;2.00;;;;;;;19.70;48.70;100671.95;643124;221;23903;-75
2021/05/31 08:47:39;;;;;;;2.40;1.90;;;;;;;19.30;50.97;100655.02;645706;221;24869;-74
2021/05/31 08:50:08;;;;;;;2.27;2.07;;;;;;;19.23;51.20;100669.45;625232;226;23972;-74
2021/05/31 08:52:36;;;;;;;4.83;2.00;;;;;;;18.98;49.54;100665.88;632542;222;32680;-74
2021/05/31 08:55:07;;;;;;;5.03;1.83;;;;;;;19.54;52.15;100675.20;640648;222;23895;-74
2021/05/31 08:57:35;;;;;;;2.65;1.90;;;;;;;19.60;50.53;100677.59;623203;224;32826;-74
2021/05/31 09:00:03;;;;;;;3.30;2.37;;;;;;;19.25;51.44;100674.03;631143;225;22808;-74
2021/05/31 09:02:33;;;;;;;2.00;1.77;;;;;;;19.20;50.34;100671.16;642042;221;23879;-73
2021/05/31 09:04:59;;;;;;;1.70;1.60;;;;;;;19.38;51.23;100671.50;633507;225;23923;-74
2021/05/31 09:07:27;;;;;;;3.90;2.17;;;;;;;19.90;51.92;100666.81;641791;220;23909;-74
2021/05/31 09:09:55;;;;;;;6.60;1.90;;;;;;;19.75;49.54;100666.92;637570;221;23900;-74
2021/05/31 09:12:23;;;;;;;2.00;1.90;;;;;;;20.00;49.13;100652.75;631225;225;23949;-74
2021/05/31 09:14:55;;;;;;;2.87;1.87;;;;;;;20.19;47.71;100645.92;639635;221;23900;-74
2021/05/31 09:17:25;;;;;;;3.50;2.00;;;;;;;20.39;48.28;100641.00;638914;222;23900;-74
2021/05/31 09:19:53;;;;;;;5.33;2.33;;;;;;;20.04;49.26;100640.27;627816;225;23936;-74
2021/05/31 09:22:21;;;;;;;2.90;1.80;;;;;;;20.15;49.39;100644.19;640967;221;24108;-74
2021/05/31 09:24:55;;;;;;;4.33;2.13;;;;;;;20.96;48.20;100648.16;643113;221;23948;-74
2021/05/31 09:27:23;;;;;;;2.30;1.77;;;;;;;21.04;47.37;100637.39;646951;221;24890;-74
2021/05/31 09:29:57;;;;;;;8.43;2.20;;;;;;;21.45;46.74;100637.71;629340;225;23937;-74
2021/05/31 09:32:25;;;;;;;2.93;1.70;;;;;;;20.68;46.88;100635.91;644860;221;27046;-74
2021/05/31 09:35:01;;;;;;;4.40;1.70;;;;;;;20.16;48.58;100633.92;639441;221;23923;-74
2021/05/31 09:37:28;;;;;;;2.73;2.20;;;;;;;20.35;47.95;100636.32;632670;225;23935;-74
2021/05/31 09:39:59;;;;;;;2.47;2.00;;;;;;;20.91;46.34;100634.23;639871;222;24934;-74
2021/05/31 09:42:27;;;;;;;2.70;1.80;;;;;;;21.52;46.41;100635.85;644475;221;27069;-74
2021/05/31 09:44:59;;;;;;;2.90;1.80;;;;;;;20.69;45.92;100633.61;629241;225;24030;-73
2021/05/31 09:47:28;;;;;;;4.20;1.70;;;;;;;20.81;48.02;100636.45;641585;221;23910;-74
2021/05/31 09:49:56;;;;;;;3.27;1.80;;;;;;;20.82;48.42;100634.11;641132;221;23922;-74
2021/05/31 09:52:24;;;;;;;2.60;1.77;;;;;;;20.72;44.75;100642.96;633191;225;23943;-76
2021/05/31 09:54:52;;;;;;;4.97;2.07;;;;;;;19.99;46.21;100627.36;647055;221;23916;-74
2021/05/31 09:57:21;;;;;;;2.83;1.63;;;;;;;20.39;48.73;100637.03;637545;222;23912;-74
2021/05/31 10:02:37;;;;;;;2.40;1.57;;;;;;;20.83;46.98;100623.86;650435;217;29844;-74
2021/05/31 10:05:05;;;;;;;3.07;2.00;;;;;;;21.14;45.54;100621.94;644996;220;24888;-74
2021/05/31 10:07:41;;;;;;;3.87;1.90;;;;;;;20.59;45.79;100622.59;638547;221;23889;-74
2021/05/31 10:10:07;;;;;;;2.87;1.83;;;;;;;20.63;45.31;100609.28;643386;219;24998;-74
2021/05/31 10:12:35;;;;;;;3.53;2.20;;;;;;;20.81;45.85;100610.00;656132;216;23865;-73
2021/05/31 10:15:03;;;;;;;2.30;1.73;;;;;;;20.64;45.02;100606.13;650305;218;28007;-74
2021/05/31 10:17:31;;;;;;;2.63;1.80;;;;;;;20.74;45.81;100615.30;668816;212;23862;-74
2021/05/31 10:20:00;;;;;;;3.20;1.95;;;;;;;21.13;45.23;100607.59;640144;221;32739;-74
2021/05/31 10:22:27;;;;;;;2.23;2.00;;;;;;;20.70;46.22;100606.16;643195;221;23095;-74
2021/05/31 10:24:55;;;;;;;3.20;1.90;;;;;;;21.11;47.02;100617.03;646111;221;23930;-74
2021/05/31 10:27:23;;;;;;;3.17;1.70;;;;;;;20.93;46.17;100603.61;657037;217;23885;-74
2021/05/31 10:29:50;;;;;;;5.53;1.82;;;;;;;21.17;46.31;100618.06;650229;216;32875;-75
2021/05/31 10:32:18;;;;;;;3.00;1.80;;;;;;;20.61;46.66;100611.82;649676;218;23808;-74
2021/05/31 10:34:47;;;;;;;3.47;2.10;;;;;;;20.72;47.53;100614.69;647456;221;23990;-74
2021/05/31 10:37:19;;;;;;;2.30;1.93;;;;;;;21.02;45.49;100607.69;651126;217;23859;-74
2021/05/31 10:39:56;;;;;;;2.90;1.70;;;;;;;21.85;45.21;100603.50;639309;222;28099;-74
2021/05/31 10:42:24;;;;;;;3.37;2.37;;;;;;;22.05;44.21;100590.67;644147;221;23897;-74
2021/05/31 10:44:52;;;;;;;4.03;2.00;;;;;;;21.40;45.13;100593.86;646115;221;23909;-74
2021/05/31 10:47:26;;;;;;;2.43;2.23;;;;;;;21.11;47.11;100606.45;660346;217;23864;-74
2021/05/31 10:49:55;;;;;;;7.23;1.93;;;;;;;20.90;44.47;100604.02;657417;217;23870;-74
2021/05/31 10:52:23;;;;;;;2.63;1.87;;;;;;;21.12;45.17;100594.06;657638;217;23862;-74
2021/05/31 10:54:51;;;;;;;4.13;1.87;;;;;;;21.42;45.41;100598.43;658032;217;24871;-74
2021/05/31 10:57:21;;;;;;;4.30;1.60;;;;;;;20.97;45.48;100606.98;659489;217;26005;-74
2021/05/31 10:59:48;;;;;;;3.45;1.92;;;;;;;21.41;48.10;100602.91;654004;217;32533;-74
2021/05/31 11:02:23;;;;;;;3.20;1.80;;;;;;;20.97;45.10;100592.92;662277;212;22725;-74
2021/05/31 11:04:51;;;;;;;1.83;1.73;;;;;;;21.57;45.12;100593.70;672143;212;24025;-74
2021/05/31 11:07:26;;;;;;;3.57;1.83;;;;;;;21.61;45.60;100594.40;644749;221;24896;-74
2021/05/31 11:09:54;;;;;;;2.10;1.90;;;;;;;21.52;45.35;100596.14;639342;221;32690;-74
2021/05/31 11:12:29;;;;;;;5.17;2.10;;;;;;;21.63;46.72;100597.65;647680;219;22773;-74
2021/05/31 11:15:07;;;;;;;2.53;1.70;;;;;;;21.61;45.57;100598.38;646579;220;23922;-74
2021/05/31 11:17:35;;;;;;;3.17;2.20;;;;;;;21.63;46.29;100594.19;644390;220;23945;-74
2021/05/31 11:20:11;;;;;;;1.90;1.50;;;;;;;21.85;46.88;100595.55;650255;217;23894;-74
2021/05/31 11:22:39;;;;;;;2.73;1.67;;;;;;;21.34;44.30;100585.70;650408;218;28076;-74
2021/05/31 11:25:08;;;;;;;3.27;1.93;;;;;;;22.17;44.99;100587.18;666642;212;23813;-74
2021/05/31 11:27:36;;;;;;;2.00;1.80;;;;;;;22.53;44.78;100597.69;663939;212;43075;-74
2021/05/31 11:30:04;;;;;;;3.02;2.05;;;;;;;22.12;43.92;100585.69;661817;213;32351;-74
2021/05/31 11:32:32;;;;;;;2.13;1.70;;;;;;;21.55;45.55;100585.16;644307;221;23148;-74
2021/05/31 11:35:00;;;;;;;3.90;1.82;;;;;;;22.02;45.00;100587.94;649638;217;32531;-73
2021/05/31 11:37:28;;;;;;;2.23;1.57;;;;;;;22.22;43.16;100570.64;659973;217;22745;-73
2021/05/31 11:39:56;;;;;;;1.83;1.73;;;;;;;22.88;43.09;100564.91;652447;217;23923;-73